Brisas de Luquillo, Puerto Rico
Current Conditions -  °F | °C
As of 1:53 PM on Thursday 18 Dec 2014 (Local Time) from TJNR Reporting Station
Scattered Clouds Scattered Clouds  
Wind Chill: 83°   Ceiling: Unl
Heat Index: 86°   Visibility: 10mi
Dew Point: 68°   Wind: 13mph
Humidity: 60%   Direction: 30°NNE
Pressure: 30"   Gusts: NA
Location:  18.3744°N, 65.7168°W
Report Text: TJNR 181753Z AUTO 03011KT 10SM FEW035 SCT080 28/20 A3000 RMK AO2 SLP158 T02830200 10289 20256 58025 $
Loading
Personal Weather Stations






























Interactive Weather Map New forecast layout! Learn more

10-Day Weather Forecast

Advertisements
Track Severe Weather on mobile